Terminal Aerodrome Forecast
Issued by NWS Houston/Galveston, TX

Home | Current Version | Previous Version | Text Only | Print | Product List | Glossary On
Versions: 1 2 3 4 5 6 7 8 9 10 11 12 13 14 15 16 17 18 19 20 21 22 23 24 25 26 27 28 29 30 31 32 33 34 35 36 37 38 39 40 41 42 43 44 45 46 47 48 49 50
178
FTUS44 KHGX 012024 AAA
TAFCLL
TAF AMD
KCLL 012024Z 0120/0218 36012G19KT P6SM SCT045
     FM020300 36010KT P6SM VCTS BKN030CB
     FM021300 01016G22KT P6SM OVC030=

USA.gov is the U.S. government's official web portal to all federal, state and local government web resources and services.